createdAt,value
2024-03-12T00:00:16.714Z,17.00
2024-03-12T00:02:45.706Z,16.63
2024-03-12T00:05:16.775Z,17.35
2024-03-12T00:07:44.078Z,15.93
2024-03-12T00:10:16.168Z,17.15
2024-03-12T00:12:48.776Z,16.77
2024-03-12T00:15:19.243Z,16.73
2024-03-12T00:17:46.000Z,17.13
2024-03-12T00:20:19.604Z,17.92
2024-03-12T00:22:48.384Z,17.80
2024-03-12T00:27:43.204Z,17.90
2024-03-12T00:30:10.839Z,17.40
2024-03-12T00:32:40.379Z,18.17
2024-03-12T00:35:07.881Z,16.70
2024-03-12T00:37:34.529Z,18.95
2024-03-12T00:40:01.168Z,17.40
2024-03-12T00:42:27.806Z,18.73
2024-03-12T00:44:54.293Z,16.85
2024-03-12T00:47:23.198Z,17.70
2024-03-12T00:49:51.840Z,18.55
2024-03-12T00:52:18.939Z,18.55
2024-03-12T00:54:47.061Z,18.67
2024-03-12T00:57:14.484Z,19.17
2024-03-12T00:59:42.218Z,18.85
2024-03-12T01:02:11.491Z,18.63
2024-03-12T01:04:41.301Z,19.48
2024-03-12T01:07:12.041Z,20.30
2024-03-12T01:09:40.618Z,18.05
2024-03-12T01:12:10.373Z,19.10
2024-03-12T01:14:38.130Z,19.13
2024-03-12T01:17:07.904Z,18.25
2024-03-12T01:19:37.640Z,18.48
2024-03-12T01:22:06.969Z,19.80
2024-03-12T01:24:35.038Z,19.88
2024-03-12T01:27:02.070Z,19.13
2024-03-12T01:29:28.718Z,18.88
2024-03-12T01:31:56.257Z,19.25
2024-03-12T01:34:23.752Z,19.13
2024-03-12T01:36:50.738Z,18.02
2024-03-12T01:39:17.630Z,18.13
2024-03-12T01:41:45.873Z,18.73
2024-03-12T01:44:12.825Z,18.45
2024-03-12T01:46:39.390Z,19.95
2024-03-12T01:49:06.350Z,19.42
2024-03-12T01:51:33.165Z,18.70
2024-03-12T01:53:59.671Z,17.50
2024-03-12T01:56:26.155Z,18.77
2024-03-12T01:58:52.755Z,18.15
2024-03-12T02:01:22.365Z,17.58
2024-03-12T02:03:49.807Z,19.05
2024-03-12T02:06:16.346Z,18.23
2024-03-12T02:08:42.808Z,18.40
2024-03-12T02:11:09.629Z,18.58
2024-03-12T02:13:36.555Z,19.33
2024-03-12T02:16:03.305Z,17.80
2024-03-12T02:18:29.888Z,19.02
2024-03-12T02:20:56.382Z,18.20
2024-03-12T02:23:34.902Z,19.48
2024-03-12T02:26:01.349Z,19.40
2024-03-12T02:28:27.792Z,18.45
2024-03-12T02:30:54.364Z,19.33
2024-03-12T02:33:21.472Z,19.65
2024-03-12T02:35:47.931Z,18.73
2024-03-12T02:38:14.391Z,20.67
2024-03-12T02:40:40.881Z,19.35
2024-03-12T02:43:07.471Z,20.70
2024-03-12T02:45:34.792Z,23.85
2024-03-12T02:48:01.340Z,22.02
2024-03-12T02:50:30.792Z,20.95
2024-03-12T02:52:57.275Z,22.17
2024-03-12T02:55:24.058Z,21.73
2024-03-12T02:57:50.558Z,22.90
2024-03-12T03:00:18.388Z,21.95
2024-03-12T03:02:45.532Z,21.75
2024-03-12T03:05:13.159Z,22.23
2024-03-12T03:07:41.422Z,23.00
2024-03-12T03:10:08.207Z,24.08
2024-03-12T03:12:34.743Z,23.35
2024-03-12T03:15:01.284Z,24.15
2024-03-12T03:17:27.739Z,27.63
2024-03-12T03:19:54.296Z,22.98
2024-03-12T03:22:20.808Z,24.25
2024-03-12T03:24:47.609Z,21.60
2024-03-12T03:27:14.249Z,24.15
2024-03-12T03:29:40.716Z,25.45
2024-03-12T03:32:08.002Z,24.73
2024-03-12T03:34:34.537Z,26.40
2024-03-12T03:37:01.102Z,23.58
2024-03-12T03:39:27.839Z,24.40
2024-03-12T03:41:56.223Z,23.60
2024-03-12T03:44:23.512Z,28.05
2024-03-12T03:46:50.202Z,26.23
2024-03-12T03:49:16.718Z,25.98
2024-03-12T03:51:43.389Z,23.52
2024-03-12T03:54:10.465Z,23.98
2024-03-12T03:56:36.954Z,26.90
2024-03-12T03:59:06.322Z,26.73
2024-03-12T04:01:32.955Z,25.08
2024-03-12T04:03:59.718Z,27.42
2024-03-12T04:06:26.649Z,25.48
2024-03-12T04:08:55.907Z,27.02
2024-03-12T04:11:22.441Z,26.92
2024-03-12T04:13:48.947Z,26.38
2024-03-12T04:16:16.182Z,28.67
2024-03-12T04:18:45.596Z,26.48
2024-03-12T04:21:14.959Z,25.45
2024-03-12T04:23:43.655Z,28.05
2024-03-12T04:26:10.212Z,26.65
2024-03-12T04:28:39.910Z,26.88
2024-03-12T04:31:09.352Z,25.70
2024-03-12T04:33:35.888Z,26.63
2024-03-12T04:36:02.393Z,30.05
2024-03-12T04:38:31.328Z,25.58
2024-03-12T04:40:57.803Z,25.15
2024-03-12T04:43:24.240Z,26.23
2024-03-12T04:45:50.714Z,25.63
2024-03-12T04:48:17.190Z,26.70
2024-03-12T04:50:43.749Z,26.02
2024-03-12T04:53:10.429Z,28.88
2024-03-12T04:55:40.203Z,26.83
2024-03-12T04:58:06.954Z,26.13
2024-03-12T05:00:33.632Z,25.83
2024-03-12T05:03:01.232Z,25.55
2024-03-12T05:05:27.722Z,25.90
2024-03-12T05:07:54.174Z,23.83
2024-03-12T05:10:25.388Z,26.20
2024-03-12T05:12:52.540Z,25.27
2024-03-12T05:15:19.176Z,27.02
2024-03-12T05:17:49.641Z,25.42
2024-03-12T05:20:18.493Z,24.23
2024-03-12T05:22:47.031Z,24.83
2024-03-12T05:25:37.118Z,25.80
2024-03-12T05:28:05.803Z,24.88
2024-03-12T05:30:32.320Z,27.60
2024-03-12T05:33:05.159Z,24.25
2024-03-12T05:35:33.009Z,25.88
2024-03-12T05:38:13.013Z,25.98
2024-03-12T05:40:42.494Z,24.92
2024-03-12T05:43:27.733Z,25.65
2024-03-12T05:46:12.993Z,25.65
2024-03-12T05:48:40.204Z,27.88
2024-03-12T05:51:08.541Z,28.40
2024-03-12T05:53:38.525Z,29.08
2024-03-12T05:56:08.568Z,30.17
2024-03-12T05:58:35.304Z,28.58
2024-03-12T06:01:03.604Z,28.23
2024-03-12T06:03:30.503Z,29.23
2024-03-12T06:05:57.388Z,26.45
2024-03-12T06:08:25.734Z,28.38
2024-03-12T06:10:54.985Z,29.27
2024-03-12T06:13:23.582Z,27.80
2024-03-12T06:15:51.007Z,29.48
2024-03-12T06:18:19.426Z,28.83
2024-03-12T06:20:50.286Z,28.27
2024-03-12T06:23:23.488Z,27.40
2024-03-12T06:25:50.431Z,28.95
2024-03-12T06:28:17.464Z,29.23
2024-03-12T06:30:44.575Z,28.88
2024-03-12T06:33:13.162Z,31.90
2024-03-12T06:35:41.128Z,28.50
2024-03-12T06:38:07.669Z,31.08
2024-03-12T06:40:34.310Z,30.02
2024-03-12T06:43:00.836Z,28.25
2024-03-12T06:45:28.364Z,30.60
2024-03-12T06:47:57.036Z,31.92
2024-03-12T06:50:26.940Z,31.25
2024-03-12T06:52:54.226Z,29.92
2024-03-12T06:55:24.780Z,31.23
2024-03-12T06:58:00.801Z,30.45
2024-03-12T07:00:37.943Z,30.05
2024-03-12T07:03:05.746Z,29.02
2024-03-12T07:05:37.170Z,30.60
2024-03-12T07:08:06.986Z,29.33
2024-03-12T07:10:34.703Z,31.77
2024-03-12T07:13:03.362Z,29.92
2024-03-12T07:15:32.585Z,30.17
2024-03-12T07:17:59.675Z,30.98
2024-03-12T07:20:29.046Z,29.95
2024-03-12T07:22:58.053Z,33.03
2024-03-12T07:25:24.492Z,31.67
2024-03-12T07:27:51.253Z,32.13
2024-03-12T07:30:17.746Z,28.63
2024-03-12T07:32:44.226Z,30.20
2024-03-12T07:35:10.918Z,33.38
2024-03-12T07:37:40.731Z,17.05
2024-03-12T07:40:13.186Z,38.47
2024-03-12T07:42:42.725Z,32.33
2024-03-12T07:45:15.596Z,32.50
2024-03-12T07:47:42.243Z,33.47
2024-03-12T07:50:14.938Z,31.63
2024-03-12T07:52:41.413Z,34.97
2024-03-12T07:55:08.268Z,33.50
2024-03-12T07:57:36.455Z,33.83
2024-03-12T08:00:07.031Z,31.30
2024-03-12T08:02:33.484Z,34.58
2024-03-12T08:05:00.001Z,34.20
2024-03-12T08:07:26.506Z,30.98
2024-03-12T08:09:53.653Z,32.47
2024-03-12T08:12:20.805Z,32.80
2024-03-12T08:14:47.532Z,34.67
2024-03-12T08:17:14.063Z,36.38
2024-03-12T08:19:41.948Z,33.47
2024-03-12T08:22:09.653Z,33.40
2024-03-12T08:24:38.326Z,34.67
2024-03-12T08:27:05.952Z,32.95
2024-03-12T08:29:32.756Z,34.92
2024-03-12T08:32:00.788Z,35.03
2024-03-12T08:34:28.349Z,34.20
2024-03-12T08:36:56.489Z,32.60
2024-03-12T08:39:23.378Z,36.20
2024-03-12T08:41:50.264Z,32.45
2024-03-12T08:44:16.743Z,35.53
2024-03-12T08:46:43.348Z,34.60
2024-03-12T08:49:12.130Z,36.70
2024-03-12T08:51:40.639Z,35.92
2024-03-12T08:54:07.732Z,36.03
2024-03-12T08:56:36.617Z,36.72
2024-03-12T08:59:04.207Z,36.08
2024-03-12T09:01:31.716Z,36.40
2024-03-12T09:03:58.838Z,37.22
2024-03-12T09:06:25.412Z,33.97
2024-03-12T09:08:51.889Z,38.30
2024-03-12T09:11:18.934Z,37.75
2024-03-12T09:13:48.914Z,34.90
2024-03-12T09:16:15.679Z,37.47
2024-03-12T09:18:45.341Z,29.10
2024-03-12T09:21:13.899Z,32.58
2024-03-12T09:23:48.176Z,34.05
2024-03-12T09:26:23.843Z,32.33
2024-03-12T09:28:50.943Z,32.50
2024-03-12T09:31:17.693Z,29.73
2024-03-12T09:33:46.067Z,31.55
2024-03-12T09:36:15.587Z,27.05
2024-03-12T09:38:44.839Z,28.42
2024-03-12T09:41:13.420Z,28.02
2024-03-12T09:43:40.711Z,26.85
2024-03-12T09:46:07.701Z,26.42
2024-03-12T09:48:35.003Z,24.90
2024-03-12T09:51:01.789Z,24.70
2024-03-12T09:53:28.400Z,20.63
2024-03-12T09:55:56.129Z,22.95
2024-03-12T09:58:22.859Z,17.85
2024-03-12T10:00:49.570Z,18.73
2024-03-12T10:03:19.651Z,17.42
2024-03-12T10:05:47.293Z,18.17
2024-03-12T10:08:16.086Z,15.70
2024-03-12T10:13:17.262Z,12.82
2024-03-12T10:15:57.984Z,15.77
2024-03-12T10:18:30.882Z,15.00
2024-03-12T10:20:58.785Z,14.52
2024-03-12T10:23:27.410Z,12.32
2024-03-12T10:26:10.569Z,12.07
2024-03-12T10:28:40.428Z,13.27
2024-03-12T10:31:13.065Z,12.38
2024-03-12T10:33:43.422Z,11.25
2024-03-12T10:36:13.107Z,13.15
2024-03-12T10:38:43.891Z,12.40
2024-03-12T10:41:19.202Z,13.80
2024-03-12T10:43:51.265Z,12.88
2024-03-12T10:46:18.906Z,11.02
2024-03-12T10:48:48.090Z,12.02
2024-03-12T10:51:16.482Z,11.18
2024-03-12T10:53:44.274Z,11.57
2024-03-12T10:56:15.193Z,14.10
2024-03-12T10:58:48.326Z,13.27
2024-03-12T11:01:17.917Z,12.70
2024-03-12T11:03:45.481Z,11.98
2024-03-12T11:06:14.801Z,12.95
2024-03-12T11:08:44.175Z,13.75
2024-03-12T11:11:10.883Z,14.32
2024-03-12T11:13:37.482Z,11.60
2024-03-12T11:16:17.284Z,15.60
2024-03-12T11:18:45.533Z,13.88
2024-03-12T11:21:12.689Z,12.30
2024-03-12T11:23:39.124Z,13.65
2024-03-12T11:26:15.349Z,12.80
2024-03-12T11:28:51.814Z,13.20
2024-03-12T11:31:19.041Z,12.43
2024-03-12T11:33:53.836Z,12.15
2024-03-12T11:36:40.877Z,12.48
2024-03-12T11:39:16.655Z,12.48
2024-03-12T11:42:02.164Z,11.35
2024-03-12T11:44:49.261Z,11.93
2024-03-12T11:47:36.272Z,11.73
2024-03-12T11:50:26.028Z,11.50
2024-03-12T11:52:52.611Z,12.35
2024-03-12T11:55:53.593Z,12.90
2024-03-12T11:58:21.483Z,12.45
2024-03-12T12:00:51.835Z,14.32
2024-03-12T12:03:18.423Z,15.25
2024-03-12T12:05:48.455Z,13.98
2024-03-12T12:08:17.726Z,15.18
2024-03-12T12:10:56.353Z,13.32
2024-03-12T12:13:24.192Z,15.20
2024-03-12T12:16:02.085Z,14.15
2024-03-12T12:18:32.798Z,15.43
2024-03-12T12:21:03.745Z,14.55
2024-03-12T12:23:30.811Z,17.30
2024-03-12T12:25:58.267Z,17.05
2024-03-12T12:28:25.683Z,18.35
2024-03-12T12:31:00.958Z,17.20
2024-03-12T12:33:29.373Z,20.67
2024-03-12T12:35:57.197Z,20.48
2024-03-12T12:38:24.709Z,18.02
2024-03-12T12:40:52.070Z,16.90
2024-03-12T12:43:18.617Z,20.58
2024-03-12T12:45:48.161Z,21.05
2024-03-12T12:48:15.858Z,21.20
2024-03-12T12:50:42.830Z,18.70
2024-03-12T12:53:13.163Z,17.60
2024-03-12T12:55:39.660Z,20.58
2024-03-12T12:58:08.008Z,15.88
2024-03-12T13:00:39.390Z,15.75
2024-03-12T13:03:17.181Z,15.75
2024-03-12T13:05:45.468Z,15.60
2024-03-12T13:08:30.516Z,19.30
2024-03-12T13:11:09.948Z,14.93
2024-03-12T13:13:38.269Z,14.32
2024-03-12T13:16:14.398Z,17.83
2024-03-12T13:18:46.216Z,14.38
2024-03-12T13:21:21.302Z,15.88
2024-03-12T13:23:48.434Z,15.48
2024-03-12T13:26:15.650Z,16.92
2024-03-12T13:28:42.584Z,15.52
2024-03-12T13:31:09.563Z,17.10
2024-03-12T13:33:36.124Z,15.90
2024-03-12T13:36:02.876Z,14.60
2024-03-12T13:38:29.398Z,15.27
2024-03-12T13:40:56.937Z,17.10
2024-03-12T13:43:32.829Z,17.30
2024-03-12T13:45:59.475Z,16.52
2024-03-12T13:48:26.891Z,16.98
2024-03-12T13:51:11.607Z,15.65
2024-03-12T13:53:41.762Z,17.17
2024-03-12T13:56:11.069Z,15.32
2024-03-12T13:58:42.915Z,14.88
2024-03-12T14:01:13.785Z,14.65
2024-03-12T14:06:10.199Z,14.05
2024-03-12T14:11:03.960Z,14.13
2024-03-12T14:13:32.680Z,13.50
2024-03-12T14:18:27.605Z,12.30
2024-03-12T14:20:55.834Z,14.30
2024-03-12T14:23:22.673Z,13.45
2024-03-12T14:25:50.154Z,15.85
2024-03-12T14:28:17.103Z,16.05
2024-03-12T14:30:45.635Z,14.05
2024-03-12T14:33:12.794Z,12.80
2024-03-12T14:35:39.362Z,11.77
2024-03-12T14:38:05.779Z,11.73
2024-03-12T14:40:32.323Z,11.07
2024-03-12T14:42:59.137Z,11.50
2024-03-12T14:45:25.688Z,10.43
2024-03-12T14:47:52.518Z,10.52
2024-03-12T14:50:19.429Z,10.75
2024-03-12T14:52:48.740Z,11.75
2024-03-12T14:55:15.304Z,10.18
2024-03-12T14:57:42.051Z,11.57
2024-03-12T15:00:10.705Z,12.18
2024-03-12T15:02:37.655Z,13.50
2024-03-12T15:05:11.675Z,10.77
2024-03-12T15:07:44.388Z,12.95
2024-03-12T15:10:11.511Z,12.15
2024-03-12T15:12:40.624Z,14.05
2024-03-12T15:15:15.893Z,13.52
2024-03-12T15:17:43.587Z,14.23
2024-03-12T15:20:11.363Z,12.48
2024-03-12T15:22:38.477Z,15.38
2024-03-12T15:25:07.616Z,12.88
2024-03-12T15:27:35.487Z,13.98
2024-03-12T15:30:02.323Z,15.37
2024-03-12T15:32:29.096Z,16.50
2024-03-12T15:34:57.616Z,14.23
2024-03-12T15:37:24.437Z,15.45
2024-03-12T15:39:51.063Z,14.23
2024-03-12T15:42:18.248Z,14.48
2024-03-12T15:44:44.686Z,16.92
2024-03-12T15:47:11.358Z,14.82
2024-03-12T15:49:40.327Z,15.15
2024-03-12T15:52:07.095Z,14.48
2024-03-12T15:54:33.644Z,15.13
2024-03-12T15:57:00.133Z,14.95
2024-03-12T15:59:27.177Z,15.27
2024-03-12T16:01:54.849Z,15.55
2024-03-12T16:04:21.612Z,14.55
2024-03-12T16:06:48.177Z,15.00
2024-03-12T16:09:17.848Z,15.38
2024-03-12T16:11:44.708Z,14.65
2024-03-12T16:14:13.128Z,15.80
2024-03-12T16:16:40.638Z,16.45
2024-03-12T16:19:07.988Z,16.80
2024-03-12T16:21:35.326Z,16.10
2024-03-12T16:24:02.372Z,16.48
2024-03-12T16:26:29.515Z,16.02
2024-03-12T16:28:56.002Z,17.33
2024-03-12T16:31:22.566Z,16.35
2024-03-12T16:33:49.615Z,16.50
2024-03-12T16:36:19.305Z,16.85
2024-03-12T16:38:47.578Z,15.32
2024-03-12T16:41:15.710Z,18.98
2024-03-12T16:43:42.962Z,17.58
2024-03-12T16:46:10.753Z,17.73
2024-03-12T16:48:40.927Z,19.73
2024-03-12T16:51:08.350Z,18.60
2024-03-12T16:53:35.007Z,18.88
2024-03-12T16:56:02.076Z,19.13
2024-03-12T16:58:30.147Z,18.33
2024-03-12T17:00:59.258Z,17.87
2024-03-12T17:03:26.928Z,20.52
2024-03-12T17:05:55.755Z,18.92
2024-03-12T17:10:49.551Z,18.85
2024-03-12T17:13:17.993Z,18.38
2024-03-12T17:15:46.720Z,18.60
2024-03-12T17:18:25.269Z,17.73
2024-03-12T17:20:53.018Z,16.98
2024-03-12T17:23:19.588Z,18.92
2024-03-12T17:25:46.275Z,20.00
2024-03-12T17:28:13.218Z,20.05
2024-03-12T17:30:40.143Z,19.60
2024-03-12T17:33:08.262Z,20.80
2024-03-12T17:35:34.950Z,21.15
2024-03-12T17:38:02.527Z,19.63
2024-03-12T17:40:29.945Z,19.48
2024-03-12T17:42:56.674Z,18.30
2024-03-12T17:45:24.832Z,19.42
2024-03-12T17:47:52.824Z,19.33
2024-03-12T17:50:24.224Z,20.17
2024-03-12T17:52:52.528Z,19.95
2024-03-12T17:55:20.365Z,18.40
2024-03-12T17:57:47.502Z,20.10
2024-03-12T18:00:15.573Z,18.85
2024-03-12T18:02:44.970Z,19.40
2024-03-12T18:05:12.815Z,21.05
2024-03-12T18:07:43.760Z,31.80
2024-03-12T18:10:20.605Z,26.05
2024-03-12T18:12:48.174Z,24.15
2024-03-12T18:15:19.030Z,26.63
2024-03-12T18:17:46.233Z,26.35
2024-03-12T18:20:14.088Z,27.60
2024-03-12T18:22:41.097Z,26.90
2024-03-12T18:25:12.465Z,23.52
2024-03-12T18:27:43.924Z,22.75
2024-03-12T18:30:11.366Z,22.00
2024-03-12T18:32:41.393Z,20.13
2024-03-12T18:35:08.970Z,19.42
2024-03-12T18:37:39.560Z,20.50
2024-03-12T18:40:12.633Z,18.38
2024-03-12T18:42:40.677Z,20.00
2024-03-12T18:45:08.123Z,18.88
2024-03-12T18:47:35.258Z,19.35
2024-03-12T18:50:02.096Z,21.85
2024-03-12T18:52:28.954Z,22.13
2024-03-12T18:54:55.802Z,22.10
2024-03-12T18:57:22.559Z,21.35
2024-03-12T18:59:51.073Z,20.83
2024-03-12T19:02:27.245Z,19.45
2024-03-12T19:04:59.473Z,19.55
2024-03-12T19:07:27.226Z,20.58
2024-03-12T19:09:54.155Z,18.67
2024-03-12T19:12:20.859Z,19.33
2024-03-12T19:14:47.764Z,20.15
2024-03-12T19:17:16.223Z,19.10
2024-03-12T19:19:42.932Z,19.77
2024-03-12T19:22:11.694Z,19.08
2024-03-12T19:24:38.812Z,18.58
2024-03-12T19:27:07.539Z,18.50
2024-03-12T19:29:36.397Z,21.73
2024-03-12T19:32:04.924Z,19.42
2024-03-12T19:34:33.956Z,17.80
2024-03-12T19:37:02.781Z,19.73
2024-03-12T19:39:30.917Z,17.58
2024-03-12T19:41:57.769Z,18.88
2024-03-12T19:44:24.335Z,17.85
2024-03-12T19:46:51.131Z,18.75
2024-03-12T19:49:17.923Z,17.77
2024-03-12T19:51:44.634Z,18.08
2024-03-12T19:54:16.888Z,18.38
2024-03-12T19:56:43.342Z,17.58
2024-03-12T19:59:10.378Z,19.02
2024-03-12T20:01:38.884Z,17.92
2024-03-12T20:04:05.565Z,20.75
2024-03-12T20:06:33.267Z,20.45
2024-03-12T20:09:01.431Z,20.98
2024-03-12T20:11:28.013Z,22.48
2024-03-12T20:13:56.190Z,23.17
2024-03-12T20:16:22.869Z,24.00
2024-03-12T20:18:50.241Z,21.27
2024-03-12T20:21:17.968Z,21.83
2024-03-12T20:23:44.656Z,22.85
2024-03-12T20:26:11.122Z,23.95
2024-03-12T20:28:37.712Z,25.05
2024-03-12T20:31:06.895Z,23.23
2024-03-12T20:33:33.645Z,28.08
2024-03-12T20:36:02.360Z,29.52
2024-03-12T20:38:30.004Z,27.65
2024-03-12T20:40:56.510Z,24.45
2024-03-12T20:43:23.058Z,26.02
2024-03-12T20:45:50.350Z,25.67
2024-03-12T20:48:16.986Z,22.98
2024-03-12T20:50:44.315Z,25.10
2024-03-12T20:53:13.758Z,23.27
2024-03-12T20:55:40.530Z,24.92
2024-03-12T20:58:07.130Z,23.85
2024-03-12T21:00:34.517Z,25.00
2024-03-12T21:03:01.194Z,23.35
2024-03-12T21:05:28.398Z,24.08
2024-03-12T21:07:54.936Z,22.70
2024-03-12T21:10:22.904Z,23.38
2024-03-12T21:12:51.734Z,23.20
2024-03-12T21:15:19.171Z,24.92
2024-03-12T21:17:46.384Z,24.75
2024-03-12T21:20:34.299Z,24.60
2024-03-12T21:23:01.183Z,24.87
2024-03-12T21:25:27.870Z,24.10
2024-03-12T21:27:54.527Z,24.50
2024-03-12T21:30:22.997Z,23.23
2024-03-12T21:32:50.599Z,22.88
2024-03-12T21:35:17.217Z,22.65
2024-03-12T21:37:43.715Z,22.10
2024-03-12T21:40:12.444Z,23.08
2024-03-12T21:42:39.914Z,22.85
2024-03-12T21:45:13.449Z,23.05
2024-03-12T21:47:41.079Z,22.55
2024-03-12T21:50:15.031Z,21.90
2024-03-12T21:52:42.209Z,23.40
2024-03-12T21:55:11.375Z,23.25
2024-03-12T21:57:39.499Z,20.67
2024-03-12T22:00:11.870Z,21.00
2024-03-12T22:02:39.247Z,22.20
2024-03-12T22:05:08.715Z,22.63
2024-03-12T22:07:38.256Z,23.10
2024-03-12T22:10:06.104Z,23.45
2024-03-12T22:12:32.620Z,22.48
2024-03-12T22:14:59.098Z,21.90
2024-03-12T22:17:25.669Z,23.63
2024-03-12T22:19:52.124Z,24.17
2024-03-12T22:22:18.655Z,24.55
2024-03-12T22:24:45.227Z,25.05
2024-03-12T22:27:11.695Z,25.17
2024-03-12T22:29:39.819Z,25.38
2024-03-12T22:32:09.479Z,26.65
2024-03-12T22:34:36.103Z,25.02
2024-03-12T22:37:02.646Z,23.90
2024-03-12T22:39:29.421Z,23.95
2024-03-12T22:41:56.581Z,23.42
2024-03-12T22:44:23.214Z,24.52
2024-03-12T22:46:50.541Z,24.45
2024-03-12T22:49:17.145Z,22.65
2024-03-12T22:51:44.229Z,23.35
2024-03-12T22:54:11.304Z,23.65
2024-03-12T22:56:38.793Z,23.45
2024-03-12T22:59:05.521Z,24.15
2024-03-12T23:01:32.433Z,23.73
2024-03-12T23:03:59.945Z,23.25
2024-03-12T23:06:26.624Z,23.45
2024-03-12T23:08:53.461Z,23.42
2024-03-12T23:11:22.459Z,21.75
2024-03-12T23:13:49.068Z,23.77
2024-03-12T23:16:16.229Z,25.80
2024-03-12T23:18:43.176Z,22.13
2024-03-12T23:21:11.426Z,24.20
2024-03-12T23:23:38.854Z,23.45
2024-03-12T23:26:05.693Z,22.70
2024-03-12T23:28:32.225Z,23.58
2024-03-12T23:30:58.921Z,23.60
2024-03-12T23:33:26.219Z,25.20
2024-03-12T23:35:52.865Z,23.95
2024-03-12T23:38:20.056Z,23.13
2024-03-12T23:40:46.749Z,23.25
2024-03-12T23:43:13.315Z,22.13
2024-03-12T23:45:39.856Z,25.98
2024-03-12T23:48:08.615Z,23.05
2024-03-12T23:50:36.934Z,24.90
2024-03-12T23:53:06.465Z,24.02
2024-03-12T23:55:33.037Z,23.15
2024-03-12T23:58:00.749Z,22.15
